createdAt,value
2018-04-26T00:00:41.793Z,1009.84
2018-04-26T00:01:41.522Z,1009.88
2018-04-26T00:02:41.549Z,1009.87
2018-04-26T00:03:41.579Z,1009.91
2018-04-26T00:04:41.608Z,1009.86
2018-04-26T00:05:41.640Z,1009.87
2018-04-26T00:06:43.173Z,1009.91
2018-04-26T00:07:41.702Z,1009.90
2018-04-26T00:08:42.404Z,1009.91
2018-04-26T00:09:41.767Z,1009.86
2018-04-26T00:10:41.798Z,1009.88
2018-04-26T00:11:41.835Z,1009.86
2018-04-26T00:12:42.163Z,1009.86
2018-04-26T00:13:41.889Z,1009.88
2018-04-26T00:14:41.917Z,1009.85
2018-04-26T00:15:41.948Z,1009.86
2018-04-26T00:16:41.994Z,1009.91
2018-04-26T00:17:42.014Z,1009.87
2018-04-26T00:18:42.393Z,1009.87
2018-04-26T00:19:42.279Z,1009.93
2018-04-26T00:20:42.112Z,1009.87
2018-04-26T00:21:42.351Z,1009.91
2018-04-26T00:22:42.194Z,1009.83
2018-04-26T00:23:42.324Z,1009.89
2018-04-26T00:24:42.537Z,1009.92
2018-04-26T00:25:42.258Z,1009.91
2018-04-26T00:26:42.298Z,1009.94
2018-04-26T00:27:42.324Z,1009.86
2018-04-26T00:28:42.703Z,1009.88
2018-04-26T00:29:42.386Z,1009.89
2018-04-26T00:30:42.714Z,1009.91
2018-04-26T00:31:42.464Z,1009.86
2018-04-26T00:32:42.477Z,1009.80
2018-04-26T00:33:42.649Z,1009.90
2018-04-26T00:34:42.539Z,1009.80
2018-04-26T00:35:42.931Z,1009.85
2018-04-26T00:36:42.922Z,1009.80
2018-04-26T00:37:42.654Z,1009.90
2018-04-26T00:38:43.063Z,1009.86
2018-04-26T00:39:42.693Z,1009.84
2018-04-26T00:40:42.721Z,1009.80
2018-04-26T00:41:44.019Z,1009.82
2018-04-26T00:42:43.092Z,1009.76
2018-04-26T00:43:42.818Z,1009.80
2018-04-26T00:44:42.846Z,1009.78
2018-04-26T00:45:42.891Z,1009.72
2018-04-26T00:46:42.924Z,1009.70
2018-04-26T00:47:44.332Z,1009.69
2018-04-26T00:48:43.287Z,1009.69
2018-04-26T00:49:43.013Z,1009.68
2018-04-26T00:50:43.043Z,1009.67
2018-04-26T00:51:43.112Z,1009.76
2018-04-26T00:52:43.115Z,1009.68
2018-04-26T00:53:43.125Z,1009.73
2018-04-26T00:54:43.739Z,1009.66
2018-04-26T00:55:43.193Z,1009.67
2018-04-26T00:56:43.217Z,1009.67
2018-04-26T00:57:43.247Z,1009.68
2018-04-26T00:58:43.278Z,1009.70
2018-04-26T00:59:43.308Z,1009.72
2018-04-26T01:00:43.662Z,1009.78
2018-04-26T01:01:43.685Z,1009.66
2018-04-26T01:02:43.451Z,1009.77
2018-04-26T01:03:44.647Z,1009.75
2018-04-26T01:04:43.514Z,1009.81
2018-04-26T01:05:43.505Z,1009.85
2018-04-26T01:06:43.824Z,1009.80
2018-04-26T01:07:43.834Z,1009.85
2018-04-26T01:08:43.589Z,1009.77
2018-04-26T01:09:43.618Z,1009.81
2018-04-26T01:10:43.653Z,1009.97
2018-04-26T01:11:43.676Z,1009.92
2018-04-26T01:12:44.197Z,1009.83
2018-04-26T01:13:43.738Z,1009.81
2018-04-26T01:14:43.765Z,1009.92
2018-04-26T01:15:43.857Z,1009.80
2018-04-26T01:16:43.832Z,1009.71
2018-04-26T01:17:43.876Z,1009.73
2018-04-26T01:18:44.197Z,1009.81
2018-04-26T01:19:43.923Z,1009.80
2018-04-26T01:20:43.954Z,1009.86
2018-04-26T01:21:43.980Z,1009.69
2018-04-26T01:22:44.019Z,1009.76
2018-04-26T01:23:45.239Z,1009.75
2018-04-26T01:24:44.374Z,1009.71
2018-04-26T01:25:44.157Z,1009.74
2018-04-26T01:26:44.294Z,1009.82
2018-04-26T01:27:44.225Z,1009.75
2018-04-26T01:28:44.998Z,1009.75
2018-04-26T01:29:44.228Z,1009.71
2018-04-26T01:30:45.756Z,1009.77
2018-04-26T01:31:44.312Z,1009.74
2018-04-26T01:32:44.388Z,1009.80
2018-04-26T01:33:44.345Z,1009.76
2018-04-26T01:34:44.383Z,1009.78
2018-04-26T01:35:44.415Z,1009.69
2018-04-26T01:36:44.739Z,1009.73
2018-04-26T01:37:44.479Z,1009.69
2018-04-26T01:38:44.499Z,1009.65
2018-04-26T01:39:45.779Z,1009.70
2018-04-26T01:40:44.560Z,1009.73
2018-04-26T01:41:44.590Z,1009.70
2018-04-26T01:42:44.620Z,1009.63
2018-04-26T01:43:44.690Z,1009.74
2018-04-26T01:44:44.692Z,1009.60
2018-04-26T01:45:44.713Z,1009.68
2018-04-26T01:46:44.945Z,1009.67
2018-04-26T01:47:45.138Z,1009.71
2018-04-26T01:48:46.011Z,1009.75
2018-04-26T01:49:44.846Z,1009.60
2018-04-26T01:50:45.613Z,1009.72
2018-04-26T01:51:44.920Z,1009.71
2018-04-26T01:52:44.935Z,1009.63
2018-04-26T01:53:45.262Z,1009.66
2018-04-26T01:54:45.000Z,1009.65
2018-04-26T01:55:45.018Z,1009.65
2018-04-26T01:56:46.238Z,1009.58
2018-04-26T01:57:45.078Z,1009.64
2018-04-26T01:58:45.107Z,1009.55
2018-04-26T01:59:45.630Z,1009.64
2018-04-26T02:00:45.228Z,1009.64
2018-04-26T02:01:45.200Z,1009.73
2018-04-26T02:02:45.236Z,1009.71
2018-04-26T02:03:45.264Z,1009.65
2018-04-26T02:04:45.288Z,1009.67
2018-04-26T02:05:45.628Z,1009.63
2018-04-26T02:06:45.348Z,1009.75
2018-04-26T02:07:45.462Z,1009.78
2018-04-26T02:08:45.403Z,1009.73
2018-04-26T02:09:45.805Z,1009.72
2018-04-26T02:10:45.563Z,1009.74
2018-04-26T02:11:46.182Z,1009.81
2018-04-26T02:12:45.535Z,1009.66
2018-04-26T02:13:46.898Z,1009.69
2018-04-26T02:14:45.653Z,1009.74
2018-04-26T02:15:45.615Z,1009.66
2018-04-26T02:16:45.686Z,1009.63
2018-04-26T02:17:45.978Z,1009.64
2018-04-26T02:18:45.785Z,1009.59
2018-04-26T02:19:45.745Z,1009.67
2018-04-26T02:20:45.782Z,1009.73
2018-04-26T02:21:45.798Z,1009.77
2018-04-26T02:22:45.905Z,1009.73
2018-04-26T02:23:46.577Z,1009.69
2018-04-26T02:24:45.886Z,1009.52
2018-04-26T02:25:45.958Z,1009.64
2018-04-26T02:26:45.956Z,1009.76
2018-04-26T02:27:45.977Z,1009.86
2018-04-26T02:28:46.006Z,1009.70
2018-04-26T02:29:46.366Z,1009.72
2018-04-26T02:30:46.305Z,1009.69
2018-04-26T02:31:46.102Z,1009.71
2018-04-26T02:32:46.134Z,1009.66
2018-04-26T02:33:46.155Z,1009.73
2018-04-26T02:34:46.201Z,1009.85
2018-04-26T02:35:46.514Z,1009.78
2018-04-26T02:36:47.023Z,1009.83
2018-04-26T02:37:46.280Z,1009.77
2018-04-26T02:38:46.810Z,1009.76
2018-04-26T02:39:46.364Z,1009.71
2018-04-26T02:40:46.433Z,1009.69
2018-04-26T02:41:46.702Z,1009.69
2018-04-26T02:42:46.487Z,1009.77
2018-04-26T02:43:46.458Z,1009.74
2018-04-26T02:44:46.496Z,1009.75
2018-04-26T02:45:46.571Z,1009.75
2018-04-26T02:46:46.545Z,1009.75
2018-04-26T02:47:47.166Z,1009.68
2018-04-26T02:48:46.917Z,1009.75
2018-04-26T02:49:46.736Z,1009.79
2018-04-26T02:50:46.669Z,1009.80
2018-04-26T02:51:46.695Z,1009.87
2018-04-26T02:52:46.724Z,1009.74
2018-04-26T02:53:46.762Z,1009.78
2018-04-26T02:54:46.788Z,1009.72
2018-04-26T02:55:47.122Z,1009.83
2018-04-26T02:56:48.047Z,1009.77
2018-04-26T02:57:46.901Z,1009.80
2018-04-26T02:58:48.140Z,1009.83
2018-04-26T02:59:46.935Z,1009.86
2018-04-26T03:00:46.966Z,1009.87
2018-04-26T03:01:47.297Z,1009.89
2018-04-26T03:02:47.028Z,1009.93
2018-04-26T03:03:47.056Z,1009.92
2018-04-26T03:04:47.083Z,1009.74
2018-04-26T03:05:47.367Z,1009.83
2018-04-26T03:06:47.162Z,1009.85
2018-04-26T03:07:47.491Z,1009.84
2018-04-26T03:08:47.219Z,1009.86
2018-04-26T03:09:47.441Z,1009.82
2018-04-26T03:10:47.315Z,1009.77
2018-04-26T03:11:47.546Z,1009.82
2018-04-26T03:12:47.326Z,1009.82
2018-04-26T03:13:48.610Z,1009.77
2018-04-26T03:14:47.684Z,1009.76
2018-04-26T03:15:47.436Z,1009.79
2018-04-26T03:16:47.452Z,1009.79
2018-04-26T03:17:47.474Z,1009.84
2018-04-26T03:18:47.501Z,1009.72
2018-04-26T03:19:47.533Z,1009.83
2018-04-26T03:20:47.866Z,1009.83
2018-04-26T03:21:47.600Z,1009.76
2018-04-26T03:22:47.761Z,1009.79
2018-04-26T03:23:47.653Z,1009.83
2018-04-26T03:24:47.892Z,1009.83
2018-04-26T03:25:47.735Z,1009.77
2018-04-26T03:26:48.217Z,1009.81
2018-04-26T03:27:47.822Z,1009.88
2018-04-26T03:28:47.857Z,1009.88
2018-04-26T03:29:47.834Z,1009.80
2018-04-26T03:30:47.864Z,1009.87
2018-04-26T03:31:47.895Z,1009.85
2018-04-26T03:32:48.277Z,1009.82
2018-04-26T03:33:47.957Z,1009.81
2018-04-26T03:34:48.186Z,1009.79
2018-04-26T03:35:48.116Z,1009.88
2018-04-26T03:36:48.627Z,1009.97
2018-04-26T03:37:48.137Z,1010.03
2018-04-26T03:38:48.101Z,1009.93
2018-04-26T03:39:48.430Z,1009.93
2018-04-26T03:40:48.166Z,1010.02
2018-04-26T03:41:48.217Z,1009.96
2018-04-26T03:42:48.256Z,1009.93
2018-04-26T03:43:48.250Z,1009.97
2018-04-26T03:44:48.284Z,1010.00
2018-04-26T03:45:48.797Z,1009.97
2018-04-26T03:46:48.343Z,1009.99
2018-04-26T03:47:49.832Z,1009.96
2018-04-26T03:48:48.397Z,1009.99
2018-04-26T03:49:49.977Z,1009.88
2018-04-26T03:50:48.600Z,1009.96
2018-04-26T03:51:48.800Z,1009.93
2018-04-26T03:52:48.518Z,1009.85
2018-04-26T03:53:48.551Z,1009.95
2018-04-26T03:54:48.583Z,1009.92
2018-04-26T03:55:48.658Z,1009.92
2018-04-26T03:56:48.775Z,1009.90
2018-04-26T03:57:48.971Z,1009.96
2018-04-26T03:58:48.909Z,1009.92
2018-04-26T03:59:48.784Z,1009.90
2018-04-26T04:00:49.778Z,1009.98
2018-04-26T04:01:48.796Z,1009.94
2018-04-26T04:02:48.839Z,1010.03
2018-04-26T04:03:49.157Z,1010.04
2018-04-26T04:04:48.880Z,1009.96
2018-04-26T04:05:49.339Z,1009.96
2018-04-26T04:06:48.936Z,1010.15
2018-04-26T04:07:48.992Z,1010.12
2018-04-26T04:08:49.061Z,1010.01
2018-04-26T04:09:50.587Z,1010.01
2018-04-26T04:10:49.195Z,1009.98
2018-04-26T04:11:49.087Z,1010.06
2018-04-26T04:12:49.164Z,1010.09
2018-04-26T04:13:49.241Z,1010.07
2018-04-26T04:14:49.178Z,1010.04
2018-04-26T04:15:49.306Z,1010.06
2018-04-26T04:16:49.541Z,1010.01
2018-04-26T04:17:49.278Z,1010.10
2018-04-26T04:18:50.509Z,1010.00
2018-04-26T04:19:49.328Z,1010.11
2018-04-26T04:20:49.353Z,1010.04
2018-04-26T04:21:49.398Z,1010.06
2018-04-26T04:22:49.714Z,1010.11
2018-04-26T04:23:49.464Z,1010.03
2018-04-26T04:24:49.500Z,1010.09
2018-04-26T04:25:49.630Z,1010.16
2018-04-26T04:26:50.061Z,1010.19
2018-04-26T04:27:49.566Z,1010.18
2018-04-26T04:28:50.223Z,1010.41
2018-04-26T04:29:49.627Z,1010.40
2018-04-26T04:30:50.427Z,1010.31
2018-04-26T04:31:49.683Z,1010.35
2018-04-26T04:32:49.773Z,1010.30
2018-04-26T04:33:49.745Z,1010.28
2018-04-26T04:34:50.319Z,1010.23
2018-04-26T04:35:49.801Z,1010.30
2018-04-26T04:36:49.831Z,1010.33
2018-04-26T04:37:49.864Z,1010.35
2018-04-26T04:38:49.891Z,1010.45
2018-04-26T04:39:49.937Z,1010.42
2018-04-26T04:40:50.252Z,1010.45
2018-04-26T04:41:50.009Z,1010.47
2018-04-26T04:42:50.208Z,1010.46
2018-04-26T04:43:50.040Z,1010.43
2018-04-26T04:44:50.465Z,1010.47
2018-04-26T04:45:50.100Z,1010.50
2018-04-26T04:46:50.458Z,1010.59
2018-04-26T04:47:50.156Z,1010.57
2018-04-26T04:48:50.188Z,1010.54
2018-04-26T04:49:50.259Z,1010.61
2018-04-26T04:50:50.274Z,1010.53
2018-04-26T04:51:50.513Z,1010.59
2018-04-26T04:52:50.312Z,1010.53
2018-04-26T04:53:50.636Z,1010.65
2018-04-26T04:54:50.385Z,1010.63
2018-04-26T04:55:50.397Z,1010.67
2018-04-26T04:56:50.430Z,1010.69
2018-04-26T04:57:50.465Z,1010.60
2018-04-26T04:58:50.498Z,1010.65
2018-04-26T04:59:51.428Z,1010.66
2018-04-26T05:00:50.611Z,1010.63
2018-04-26T05:01:51.264Z,1010.68
2018-04-26T05:02:50.635Z,1010.72
2018-04-26T05:03:50.642Z,1010.64
2018-04-26T05:04:50.664Z,1010.68
2018-04-26T05:05:51.041Z,1010.64
2018-04-26T05:06:50.806Z,1010.70
2018-04-26T05:07:50.842Z,1010.72
2018-04-26T05:08:50.787Z,1010.72
2018-04-26T05:09:50.815Z,1010.71
2018-04-26T05:10:50.892Z,1010.73
2018-04-26T05:11:51.219Z,1010.76
2018-04-26T05:12:50.931Z,1010.79
2018-04-26T05:13:50.994Z,1010.83
2018-04-26T05:14:50.958Z,1010.81
2018-04-26T05:15:50.993Z,1010.78
2018-04-26T05:16:51.018Z,1010.84
2018-04-26T05:17:51.354Z,1010.83
2018-04-26T05:18:51.078Z,1010.84
2018-04-26T05:19:51.155Z,1010.75
2018-04-26T05:20:51.137Z,1010.83
2018-04-26T05:21:51.166Z,1010.92
2018-04-26T05:22:51.195Z,1010.84
2018-04-26T05:23:51.525Z,1010.91
2018-04-26T05:24:51.254Z,1010.90
2018-04-26T05:25:51.284Z,1010.93
2018-04-26T05:26:52.514Z,1010.92
2018-04-26T05:27:51.346Z,1010.91
2018-04-26T05:28:51.386Z,1010.92
2018-04-26T05:29:51.739Z,1010.90
2018-04-26T05:30:51.597Z,1010.89
2018-04-26T05:31:51.466Z,1010.92
2018-04-26T05:32:51.495Z,1011.00
2018-04-26T05:33:51.526Z,1010.99
2018-04-26T05:34:51.551Z,1010.96
2018-04-26T05:35:51.882Z,1010.99
2018-04-26T05:36:51.613Z,1010.99
2018-04-26T05:37:51.973Z,1010.98
2018-04-26T05:38:51.672Z,1010.96
2018-04-26T05:39:51.709Z,1010.96
2018-04-26T05:40:51.860Z,1011.03
2018-04-26T05:41:52.121Z,1011.11
2018-04-26T05:42:51.792Z,1011.12
2018-04-26T05:43:52.029Z,1011.07
2018-04-26T05:44:51.853Z,1011.06
2018-04-26T05:45:51.887Z,1011.06
2018-04-26T05:46:51.915Z,1011.07
2018-04-26T05:47:52.245Z,1011.09
2018-04-26T05:48:51.976Z,1011.11
2018-04-26T05:49:52.004Z,1011.15
2018-04-26T05:50:52.183Z,1011.03
2018-04-26T05:51:52.072Z,1011.06
2018-04-26T05:52:52.149Z,1011.07
2018-04-26T05:53:52.424Z,1011.10
2018-04-26T05:54:52.164Z,1011.13
2018-04-26T05:55:52.253Z,1011.06
2018-04-26T05:56:52.354Z,1011.03
2018-04-26T05:57:52.243Z,1011.10
2018-04-26T05:58:52.357Z,1011.04
2018-04-26T05:59:53.227Z,1011.17
2018-04-26T06:00:52.348Z,1011.16
2018-04-26T06:01:52.373Z,1011.15
2018-04-26T06:02:52.408Z,1011.15
2018-04-26T06:03:52.568Z,1011.18
2018-04-26T06:04:52.761Z,1011.18
2018-04-26T06:05:52.817Z,1011.21
2018-04-26T06:06:52.517Z,1011.23
2018-04-26T06:07:52.557Z,1011.21
2018-04-26T06:08:52.576Z,1011.26
2018-04-26T06:09:52.710Z,1011.27
2018-04-26T06:10:52.652Z,1011.32
2018-04-26T06:11:52.968Z,1011.25
2018-04-26T06:12:52.704Z,1011.31
2018-04-26T06:13:53.944Z,1011.27
2018-04-26T06:14:52.994Z,1011.36
2018-04-26T06:15:52.836Z,1011.38
2018-04-26T06:16:52.923Z,1011.37
2018-04-26T06:17:53.151Z,1011.37
2018-04-26T06:18:52.882Z,1011.43
2018-04-26T06:19:52.913Z,1011.39
2018-04-26T06:20:52.992Z,1011.41
2018-04-26T06:21:52.973Z,1011.41
2018-04-26T06:22:53.149Z,1011.42
2018-04-26T06:23:53.400Z,1011.47
2018-04-26T06:24:53.069Z,1011.47
2018-04-26T06:25:53.192Z,1011.49
2018-04-26T06:26:53.121Z,1011.48
2018-04-26T06:27:54.585Z,1011.47
2018-04-26T06:28:53.189Z,1011.52
2018-04-26T06:29:53.512Z,1011.51
2018-04-26T06:30:53.265Z,1011.48
2018-04-26T06:31:53.275Z,1011.55
2018-04-26T06:32:53.507Z,1011.57
2018-04-26T06:33:53.538Z,1011.60
2018-04-26T06:34:53.371Z,1011.54
2018-04-26T06:35:53.744Z,1011.56
2018-04-26T06:36:53.468Z,1011.55
2018-04-26T06:37:53.461Z,1011.58
2018-04-26T06:38:53.585Z,1011.59
2018-04-26T06:39:53.514Z,1011.59
2018-04-26T06:40:53.696Z,1011.63
2018-04-26T06:41:53.878Z,1011.67
2018-04-26T06:42:53.620Z,1011.72
2018-04-26T06:43:53.666Z,1011.65
2018-04-26T06:44:53.666Z,1011.66
2018-04-26T06:45:53.710Z,1011.71
2018-04-26T06:46:53.732Z,1011.71
2018-04-26T06:47:54.336Z,1011.79
2018-04-26T06:48:53.796Z,1011.76
2018-04-26T06:49:54.019Z,1011.80
2018-04-26T06:50:53.850Z,1011.69
2018-04-26T06:51:53.896Z,1011.70
2018-04-26T06:52:53.988Z,1011.75
2018-04-26T06:53:54.267Z,1011.81
2018-04-26T06:54:55.224Z,1011.78
2018-04-26T06:55:54.012Z,1011.83
2018-04-26T06:56:54.219Z,1011.87
2018-04-26T06:57:54.065Z,1011.87
2018-04-26T06:58:54.421Z,1011.88
2018-04-26T06:59:54.439Z,1011.84
2018-04-26T07:00:54.365Z,1011.83
2018-04-26T07:01:54.211Z,1011.88
2018-04-26T07:02:54.217Z,1011.86
2018-04-26T07:03:54.265Z,1011.94
2018-04-26T07:04:54.334Z,1011.90
2018-04-26T07:05:54.682Z,1011.90
2018-04-26T07:06:54.345Z,1011.90
2018-04-26T07:07:54.370Z,1011.88
2018-04-26T07:08:54.413Z,1011.95
2018-04-26T07:09:54.449Z,1011.93
2018-04-26T07:10:54.473Z,1011.95
2018-04-26T07:11:54.790Z,1011.90
2018-04-26T07:12:54.518Z,1011.91
2018-04-26T07:13:54.545Z,1011.98
2018-04-26T07:14:54.591Z,1011.98
2018-04-26T07:15:54.670Z,1011.99
2018-04-26T07:16:54.908Z,1011.99
2018-04-26T07:17:54.970Z,1011.98
2018-04-26T07:18:54.700Z,1011.99
2018-04-26T07:19:54.728Z,1012.03
2018-04-26T07:20:54.761Z,1011.97
2018-04-26T07:21:54.873Z,1012.09
2018-04-26T07:22:54.823Z,1012.08
2018-04-26T07:23:55.860Z,1012.00
2018-04-26T07:24:54.884Z,1012.04
2018-04-26T07:25:54.941Z,1012.05
2018-04-26T07:26:54.996Z,1012.03
2018-04-26T07:27:55.033Z,1012.07
2018-04-26T07:28:55.006Z,1012.02
2018-04-26T07:29:55.951Z,1012.04
2018-04-26T07:30:55.065Z,1011.99
2018-04-26T07:31:55.098Z,1012.06
2018-04-26T07:32:55.126Z,1012.05
2018-04-26T07:33:55.248Z,1011.90
2018-04-26T07:34:55.267Z,1011.99
2018-04-26T07:35:55.522Z,1011.97
2018-04-26T07:36:55.263Z,1012.03
2018-04-26T07:37:55.286Z,1012.03
2018-04-26T07:38:55.325Z,1012.05
2018-04-26T07:39:56.583Z,1012.03
2018-04-26T07:40:55.376Z,1012.04
2018-04-26T07:41:55.717Z,1012.09
2018-04-26T07:42:55.440Z,1012.06
2018-04-26T07:43:56.142Z,1012.10
2018-04-26T07:44:55.516Z,1012.15
2018-04-26T07:45:56.377Z,1012.14
2018-04-26T07:46:55.594Z,1012.21
2018-04-26T07:47:55.930Z,1012.14
2018-04-26T07:48:55.626Z,1012.13
2018-04-26T07:49:55.661Z,1012.12
2018-04-26T07:50:55.693Z,1012.16
2018-04-26T07:51:55.712Z,1012.11
2018-04-26T07:52:55.742Z,1012.17
2018-04-26T07:53:56.069Z,1012.17
2018-04-26T07:54:55.799Z,1012.17
2018-04-26T07:55:55.851Z,1012.12
2018-04-26T07:56:56.126Z,1012.14
2018-04-26T07:57:55.908Z,1012.18
2018-04-26T07:58:57.124Z,1012.12
2018-04-26T07:59:56.260Z,1012.12
2018-04-26T08:00:56.029Z,1012.15
2018-04-26T08:01:56.023Z,1012.22
2018-04-26T08:02:56.052Z,1012.25
2018-04-26T08:03:56.087Z,1012.22
2018-04-26T08:04:56.118Z,1012.22
2018-04-26T08:05:56.441Z,1012.18
2018-04-26T08:06:56.228Z,1012.24
2018-04-26T08:07:56.278Z,1012.15
2018-04-26T08:08:56.259Z,1012.19
2018-04-26T08:09:56.317Z,1012.20
2018-04-26T08:10:56.319Z,1012.25
2018-04-26T08:11:57.170Z,1012.22
2018-04-26T08:12:56.364Z,1012.28
2018-04-26T08:13:56.601Z,1012.28
2018-04-26T08:14:56.412Z,1012.23
2018-04-26T08:15:56.448Z,1012.32
2018-04-26T08:16:56.505Z,1012.36
2018-04-26T08:17:56.817Z,1012.32
2018-04-26T08:18:56.553Z,1012.31
2018-04-26T08:19:57.778Z,1012.31
2018-04-26T08:20:56.619Z,1012.31
2018-04-26T08:21:56.646Z,1012.32
2018-04-26T08:22:56.661Z,1012.32
2018-04-26T08:23:57.005Z,1012.36
2018-04-26T08:24:56.798Z,1012.38
2018-04-26T08:25:56.755Z,1012.39
2018-04-26T08:26:56.800Z,1012.39
2018-04-26T08:27:56.891Z,1012.34
2018-04-26T08:28:56.893Z,1012.41
2018-04-26T08:29:57.199Z,1012.44
2018-04-26T08:30:56.945Z,1012.44
2018-04-26T08:31:56.976Z,1012.48
2018-04-26T08:32:57.132Z,1012.54
2018-04-26T08:33:57.012Z,1012.56
2018-04-26T08:34:57.050Z,1012.56
2018-04-26T08:35:57.370Z,1012.53
2018-04-26T08:36:57.122Z,1012.57
2018-04-26T08:37:58.344Z,1012.54
2018-04-26T08:38:57.165Z,1012.58
2018-04-26T08:39:57.197Z,1012.52
2018-04-26T08:40:57.280Z,1012.59
2018-04-26T08:42:57.585Z,1012.59
2018-04-26T08:43:57.514Z,1012.57
2018-04-26T08:44:57.348Z,1012.54
2018-04-26T08:45:57.413Z,1012.51
2018-04-26T08:46:57.413Z,1012.60
2018-04-26T08:47:57.740Z,1012.63
2018-04-26T08:48:57.542Z,1012.60
2018-04-26T08:49:57.515Z,1012.59
2018-04-26T08:50:57.536Z,1012.64
2018-04-26T08:51:57.594Z,1012.69
2018-04-26T08:52:57.680Z,1012.66
2018-04-26T08:53:57.930Z,1012.64
2018-04-26T08:54:57.885Z,1012.69
2018-04-26T08:55:58.301Z,1012.68
2018-04-26T08:56:57.716Z,1012.72
2018-04-26T08:57:57.749Z,1012.68
2018-04-26T08:58:57.789Z,1012.61
2018-04-26T08:59:58.130Z,1012.61
2018-04-26T09:00:57.871Z,1012.59
2018-04-26T09:01:57.868Z,1012.66
2018-04-26T09:02:57.923Z,1012.63
2018-04-26T09:03:57.955Z,1012.64
2018-04-26T09:04:57.971Z,1012.69
2018-04-26T09:05:58.296Z,1012.68
2018-04-26T09:06:58.050Z,1012.71
2018-04-26T09:07:58.163Z,1012.70
2018-04-26T09:08:58.797Z,1012.71
2018-04-26T09:09:58.129Z,1012.70
2018-04-26T09:10:58.448Z,1012.76
2018-04-26T09:11:58.501Z,1012.77
2018-04-26T09:12:58.308Z,1012.79
2018-04-26T09:13:58.247Z,1012.77
2018-04-26T09:14:58.282Z,1012.83
2018-04-26T09:15:59.589Z,1012.83
2018-04-26T09:16:58.455Z,1012.84
2018-04-26T09:17:59.380Z,1012.85
2018-04-26T09:18:58.399Z,1012.86
2018-04-26T09:19:58.435Z,1012.83
2018-04-26T09:20:58.478Z,1012.85
2018-04-26T09:21:58.582Z,1012.90
2018-04-26T09:22:58.580Z,1012.87
2018-04-26T09:23:58.855Z,1012.91
2018-04-26T09:24:58.585Z,1012.92
2018-04-26T09:25:59.308Z,1012.84
2018-04-26T09:26:58.651Z,1012.95
2018-04-26T09:27:58.682Z,1012.92
2018-04-26T09:28:58.728Z,1012.94
2018-04-26T09:29:59.076Z,1012.93
2018-04-26T09:30:59.973Z,1012.92
2018-04-26T09:31:58.814Z,1012.96
2018-04-26T09:32:58.832Z,1012.97
2018-04-26T09:33:59.379Z,1012.92
2018-04-26T09:34:58.918Z,1012.98
2018-04-26T09:35:59.226Z,1012.94
2018-04-26T09:36:58.976Z,1012.98
2018-04-26T09:37:58.989Z,1012.94
2018-04-26T09:38:59.024Z,1012.96
2018-04-26T09:39:59.080Z,1013.00
2018-04-26T09:40:59.087Z,1013.04
2018-04-26T09:41:59.416Z,1013.01
2018-04-26T09:42:59.161Z,1013.01
2018-04-26T09:43:59.335Z,1013.00
2018-04-26T09:44:59.213Z,1012.92
2018-04-26T09:45:59.259Z,1012.94
2018-04-26T09:46:59.281Z,1012.93
2018-04-26T09:47:59.605Z,1012.94
2018-04-26T09:48:59.337Z,1012.91
2018-04-26T09:49:59.376Z,1012.94
2018-04-26T09:50:59.404Z,1012.93
2018-04-26T09:51:59.450Z,1012.96
2018-04-26T09:52:59.481Z,1012.99
2018-04-26T09:54:00.410Z,1012.99
2018-04-26T09:54:59.529Z,1013.00
2018-04-26T09:56:00.906Z,1013.01
2018-04-26T09:56:59.591Z,1012.97
2018-04-26T09:57:59.912Z,1012.97
2018-04-26T09:58:59.663Z,1012.99
2018-04-26T10:00:00.085Z,1013.03
2018-04-26T10:00:59.718Z,1012.97
2018-04-26T10:01:59.735Z,1012.99
2018-04-26T10:02:59.786Z,1012.93
2018-04-26T10:03:59.810Z,1012.94
2018-04-26T10:04:59.881Z,1012.98
2018-04-26T10:06:00.274Z,1012.97
2018-04-26T10:06:59.898Z,1013.02
2018-04-26T10:08:00.227Z,1012.96
2018-04-26T10:08:59.969Z,1012.99
2018-04-26T10:10:01.037Z,1012.96
2018-04-26T10:11:00.033Z,1013.02
2018-04-26T10:12:00.356Z,1013.03
2018-04-26T10:13:00.288Z,1012.95
2018-04-26T10:14:00.120Z,1012.92
2018-04-26T10:15:00.339Z,1012.95
2018-04-26T10:16:00.368Z,1012.98
2018-04-26T10:17:00.274Z,1012.96
2018-04-26T10:18:00.633Z,1013.07
2018-04-26T10:19:00.357Z,1013.04
2018-04-26T10:20:00.361Z,1013.05
2018-04-26T10:21:00.342Z,1013.04
2018-04-26T10:22:00.392Z,1013.08
2018-04-26T10:23:00.413Z,1013.02
2018-04-26T10:24:00.765Z,1013.06
2018-04-26T10:25:00.476Z,1013.08
2018-04-26T10:26:00.516Z,1013.13
2018-04-26T10:27:00.547Z,1013.12
2018-04-26T10:28:01.225Z,1013.11
2018-04-26T10:29:04.827Z,1013.14
2018-04-26T10:30:02.394Z,1013.15
2018-04-26T10:31:00.692Z,1013.11
2018-04-26T10:32:00.694Z,1013.16
2018-04-26T10:33:00.722Z,1013.18
2018-04-26T10:34:00.766Z,1013.16
2018-04-26T10:35:00.782Z,1013.19
2018-04-26T10:36:01.131Z,1013.26
2018-04-26T10:37:00.851Z,1013.24
2018-04-26T10:38:00.888Z,1013.24
2018-04-26T10:39:02.121Z,1013.25
2018-04-26T10:40:01.060Z,1013.21
2018-04-26T10:41:01.360Z,1013.20
2018-04-26T10:42:01.298Z,1013.21
2018-04-26T10:43:01.288Z,1013.21
2018-04-26T10:44:01.069Z,1013.21
2018-04-26T10:45:01.370Z,1013.21
2018-04-26T10:46:01.150Z,1013.26
2018-04-26T10:47:01.167Z,1013.25
2018-04-26T10:48:02.139Z,1013.23
2018-04-26T10:49:01.232Z,1013.28
2018-04-26T10:50:01.565Z,1013.25
2018-04-26T10:51:01.318Z,1013.25
2018-04-26T10:52:01.332Z,1013.22
2018-04-26T10:53:01.367Z,1013.23
2018-04-26T10:54:01.743Z,1013.21
2018-04-26T10:55:01.420Z,1013.22
2018-04-26T10:56:01.448Z,1013.23
2018-04-26T10:57:01.478Z,1013.16
2018-04-26T10:58:01.515Z,1013.18
2018-04-26T10:59:01.553Z,1013.19
2018-04-26T11:00:01.955Z,1013.19
2018-04-26T11:01:02.232Z,1013.16
2018-04-26T11:02:01.651Z,1013.20
2018-04-26T11:03:01.664Z,1013.18
2018-04-26T11:04:02.919Z,1013.22
2018-04-26T11:05:01.735Z,1013.16
2018-04-26T11:06:02.074Z,1013.18
2018-04-26T11:07:01.815Z,1013.17
2018-04-26T11:08:01.832Z,1013.16
2018-04-26T11:09:01.864Z,1013.09
2018-04-26T11:10:01.889Z,1013.12
2018-04-26T11:11:02.760Z,1013.17
2018-04-26T11:12:02.263Z,1013.17
2018-04-26T11:13:02.253Z,1013.10
2018-04-26T11:14:02.368Z,1013.13
2018-04-26T11:15:02.071Z,1013.08
2018-04-26T11:16:02.090Z,1013.15
2018-04-26T11:17:02.130Z,1013.17
2018-04-26T11:18:02.452Z,1013.12
2018-04-26T11:19:02.193Z,1013.16
2018-04-26T11:20:02.219Z,1013.13
2018-04-26T11:21:02.392Z,1013.17
2018-04-26T11:22:02.280Z,1013.13
2018-04-26T11:23:02.321Z,1013.15
2018-04-26T11:24:02.652Z,1013.12
2018-04-26T11:25:02.403Z,1013.13
2018-04-26T11:26:02.468Z,1013.08
2018-04-26T11:27:03.193Z,1013.10
2018-04-26T11:28:02.476Z,1013.10
2018-04-26T11:29:03.706Z,1013.12
2018-04-26T11:30:03.086Z,1013.04
2018-04-26T11:31:02.657Z,1012.97
2018-04-26T11:32:02.645Z,1013.00
2018-04-26T11:33:02.637Z,1013.02
2018-04-26T11:34:04.069Z,1012.99
2018-04-26T11:35:02.720Z,1013.01
2018-04-26T11:36:03.055Z,1012.98
2018-04-26T11:37:02.809Z,1013.02
2018-04-26T11:38:02.871Z,1012.98
2018-04-26T11:39:02.834Z,1012.95
2018-04-26T11:40:03.012Z,1013.08
2018-04-26T11:41:03.076Z,1013.02
2018-04-26T11:42:03.221Z,1013.01
2018-04-26T11:43:02.972Z,1013.06
2018-04-26T11:44:03.337Z,1013.05
2018-04-26T11:45:04.523Z,1013.11
2018-04-26T11:46:03.041Z,1013.06
2018-04-26T11:47:03.090Z,1013.06
2018-04-26T11:48:03.402Z,1013.04
2018-04-26T11:49:03.350Z,1013.03
2018-04-26T11:50:03.381Z,1013.02
2018-04-26T11:51:03.507Z,1013.10
2018-04-26T11:52:03.239Z,1013.06
2018-04-26T11:53:03.278Z,1013.00
2018-04-26T11:54:04.265Z,1013.02
2018-04-26T11:55:03.391Z,1013.03
2018-04-26T11:56:03.358Z,1013.04
2018-04-26T11:57:03.394Z,1013.15
2018-04-26T11:58:03.429Z,1013.09
2018-04-26T11:59:03.456Z,1013.14
2018-04-26T12:00:04.488Z,1013.14
2018-04-26T12:01:03.529Z,1013.10
2018-04-26T12:02:03.553Z,1013.14
2018-04-26T12:03:03.786Z,1013.14
2018-04-26T12:04:03.613Z,1013.00
2018-04-26T12:05:04.847Z,1013.04
2018-04-26T12:06:03.978Z,1013.14
2018-04-26T12:07:04.419Z,1013.06